Time,TemperatureF,DewpointF,PressureIn,WindDirection,WindDirectionDegrees,WindSpeedMPH,WindSpeedGustMPH,Humidity,HourlyPrecipIn,Conditions,Clouds,dailyrainin,SoftwareType,DateUTC
2013-05-23 00:02:00,62.0,-99.9,-100.00,North,0,0.0,0.0,-999,0.00,,,-99.99,,2013-05-23 05:02:00,
2013-05-23 00:12:00,61.0,-99.9,-100.00,North,0,0.0,0.0,-999,0.00,,,-99.99,,2013-05-23 05:12:00,
2013-05-23 00:22:00,61.0,-99.9,-100.00,North,0,0.0,0.0,-999,0.00,,,-99.99,,2013-05-23 05:22:00,
2013-05-23 00:33:00,60.0,-99.9,-100.00,North,0,0.0,0.0,-999,0.00,,,-99.99,,2013-05-23 05:33:00,
2013-05-23 00:43:00,61.0,-99.9,-100.00,North,0,0.0,0.0,-999,0.00,,,-99.99,,2013-05-23 05:43:00,
2013-05-23 00:52:00,61.0,-99.9,-100.00,North,0,0.0,0.0,-999,0.00,,,-99.99,,2013-05-23 05:52:00,
2013-05-23 01:02:00,61.0,-99.9,-100.00,North,0,0.0,0.0,-999,0.00,,,-99.99,,2013-05-23 06:02:00,
2013-05-23 01:12:00,60.0,-99.9,-100.00,North,0,0.0,0.0,-999,0.00,,,-99.99,,2013-05-23 06:12:00,
2013-05-23 01:22:00,60.0,-99.9,-100.00,North,0,0.0,0.0,-999,0.00,,,-99.99,,2013-05-23 06:22:00,
2013-05-23 01:32:00,60.0,-99.9,-100.00,North,0,0.0,0.0,-999,0.00,,,-99.99,,2013-05-23 06:32:00,
2013-05-23 01:42:00,60.0,-99.9,-100.00,North,0,0.0,0.0,-999,0.00,,,-99.99,,2013-05-23 06:42:00,
2013-05-23 01:52:00,60.0,-99.9,-100.00,North,0,0.0,0.0,-999,0.00,,,-99.99,,2013-05-23 06:52:00,
2013-05-23 02:02:00,60.0,-99.9,-100.00,North,0,0.0,0.0,-999,0.00,,,-99.99,,2013-05-23 07:02:00,
2013-05-23 02:11:00,59.0,-99.9,-100.00,North,0,0.0,0.0,-999,0.00,,,-99.99,,2013-05-23 07:11:00,
2013-05-23 02:22:00,59.0,-99.9,-100.00,North,0,0.0,0.0,-999,0.00,,,-99.99,,2013-05-23 07:22:00,
2013-05-23 02:32:00,59.0,-99.9,-100.00,North,0,0.0,0.0,-999,0.00,,,-99.99,,2013-05-23 07:32:00,
2013-05-23 02:42:00,59.0,-99.9,-100.00,North,0,0.0,0.0,-999,0.00,,,-99.99,,2013-05-23 07:42:00,
2013-05-23 02:59:00,59.0,-99.9,-100.00,North,0,0.0,0.0,-999,0.00,,,-99.99,,2013-05-23 07:59:00,
2013-05-23 03:12:00,59.0,-99.9,-100.00,North,0,0.0,0.0,-999,0.00,,,-99.99,,2013-05-23 08:12:00,
2013-05-23 03:22:00,59.0,-99.9,-100.00,North,0,0.0,0.0,-999,0.00,,,-99.99,,2013-05-23 08:22:00,
2013-05-23 03:32:00,58.0,-99.9,-100.00,North,0,0.0,0.0,-999,0.00,,,-99.99,,2013-05-23 08:32:00,
2013-05-23 03:42:00,58.0,-99.9,-100.00,North,0,0.0,0.0,-999,0.00,,,-99.99,,2013-05-23 08:42:00,
2013-05-23 03:52:00,58.0,-99.9,-100.00,North,0,0.0,0.0,-999,0.00,,,-99.99,,2013-05-23 08:52:00,
2013-05-23 04:02:00,57.0,-99.9,-100.00,North,0,0.0,0.0,-999,0.00,,,-99.99,,2013-05-23 09:02:00,
2013-05-23 04:11:00,57.0,-99.9,-100.00,North,0,0.0,0.0,-999,0.00,,,-99.99,,2013-05-23 09:11:00,
2013-05-23 04:22:00,57.0,-99.9,-100.00,North,0,0.0,0.0,-999,0.00,,,-99.99,,2013-05-23 09:22:00,
2013-05-23 04:33:00,57.0,-99.9,-100.00,North,0,0.0,0.0,-999,0.00,,,-99.99,,2013-05-23 09:33:00,
2013-05-23 04:42:00,57.0,-99.9,-100.00,North,0,0.0,0.0,-999,0.00,,,-99.99,,2013-05-23 09:42:00,
2013-05-23 04:53:00,57.0,-99.9,-100.00,North,0,0.0,0.0,-999,0.00,,,-99.99,,2013-05-23 09:53:00,
2013-05-23 05:03:00,56.0,-99.9,-100.00,North,0,0.0,0.0,-999,0.00,,,-99.99,,2013-05-23 10:03:00,
2013-05-23 05:13:00,57.0,-99.9,-100.00,North,0,0.0,0.0,-999,0.00,,,-99.99,,2013-05-23 10:13:00,
2013-05-23 05:22:00,57.0,-99.9,-100.00,North,0,0.0,0.0,-999,0.00,,,-99.99,,2013-05-23 10:22:00,
2013-05-23 05:33:00,56.0,-99.9,-100.00,North,0,0.0,0.0,-999,0.00,,,-99.99,,2013-05-23 10:33:00,
2013-05-23 05:42:00,56.0,-99.9,-100.00,North,0,0.0,0.0,-999,0.00,,,-99.99,,2013-05-23 10:42:00,
2013-05-23 05:52:00,56.0,-99.9,-100.00,North,0,0.0,0.0,-999,0.00,,,-99.99,,2013-05-23 10:52:00,
2013-05-23 06:02:00,56.0,-99.9,-100.00,North,0,0.0,0.0,-999,0.00,,,-99.99,,2013-05-23 11:02:00,
2013-05-23 06:12:00,56.0,-99.9,-100.00,North,0,0.0,0.0,-999,0.00,,,-99.99,,2013-05-23 11:12:00,
2013-05-23 06:22:00,56.0,-99.9,-100.00,North,0,0.0,0.0,-999,0.00,,,-99.99,,2013-05-23 11:22:00,
2013-05-23 06:32:00,56.0,-99.9,-100.00,North,0,0.0,0.0,-999,0.00,,,-99.99,,2013-05-23 11:32:00,
2013-05-23 06:42:00,56.0,-99.9,-100.00,North,0,0.0,0.0,-999,0.00,,,-99.99,,2013-05-23 11:42:00,
2013-05-23 06:52:00,56.0,-99.9,-100.00,North,0,0.0,0.0,-999,0.00,,,-99.99,,2013-05-23 11:52:00,
2013-05-23 07:02:00,58.0,-99.9,-100.00,North,0,0.0,0.0,-999,0.00,,,-99.99,,2013-05-23 12:02:00,
2013-05-23 07:12:00,60.0,-99.9,-100.00,North,0,0.0,0.0,-999,0.00,,,-99.99,,2013-05-23 12:12:00,
2013-05-23 07:22:00,60.0,-99.9,-100.00,North,0,0.0,0.0,-999,0.00,,,-99.99,,2013-05-23 12:22:00,
2013-05-23 07:33:00,63.0,-99.9,-100.00,North,0,0.0,0.0,-999,0.00,,,-99.99,,2013-05-23 12:33:00,
2013-05-23 07:42:00,63.0,-99.9,-100.00,North,0,0.0,0.0,-999,0.00,,,-99.99,,2013-05-23 12:42:00,
2013-05-23 07:52:00,64.0,-99.9,-100.00,North,0,0.0,0.0,-999,0.00,,,-99.99,,2013-05-23 12:52:00,
2013-05-23 08:02:00,62.0,-99.9,-100.00,North,354,4.0,5.0,-999,0.00,,,-99.99,,2013-05-23 13:02:00,
2013-05-23 08:11:00,62.0,-99.9,-100.00,NNW,345,2.0,2.0,-999,0.00,,,-99.99,,2013-05-23 13:11:00,
2013-05-23 08:22:00,62.0,-99.9,-100.00,NNW,345,2.0,2.0,-999,0.00,,,-99.99,,2013-05-23 13:22:00,
2013-05-23 08:32:00,62.0,-99.9,-100.00,North,350,2.0,4.0,-999,0.00,,,-99.99,,2013-05-23 13:32:00,
2013-05-23 08:42:00,62.0,-99.9,-100.00,North,350,2.0,4.0,-999,0.00,,,-99.99,,2013-05-23 13:42:00,
2013-05-23 08:52:00,62.0,-99.9,-100.00,North,0,3.0,6.0,-999,0.00,,,-99.99,,2013-05-23 13:52:00,
2013-05-23 09:02:00,63.0,-99.9,-100.00,North,353,4.0,6.0,-999,0.00,,,-99.99,,2013-05-23 14:02:00,
2013-05-23 09:11:00,63.0,-99.9,-100.00,North,359,3.0,5.0,-999,0.00,,,-99.99,,2013-05-23 14:11:00,
2013-05-23 09:22:00,63.0,-99.9,-100.00,North,359,3.0,5.0,-999,0.00,,,-99.99,,2013-05-23 14:22:00,
2013-05-23 09:32:00,63.0,-99.9,-100.00,NNE,14,2.0,5.0,-999,0.00,,,-99.99,,2013-05-23 14:32:00,
2013-05-23 09:42:00,63.0,-99.9,-100.00,NNE,14,2.0,5.0,-999,0.00,,,-99.99,,2013-05-23 14:42:00,
2013-05-23 09:52:00,63.0,-99.9,-100.00,NNE,14,3.0,4.0,-999,0.00,,,-99.99,,2013-05-23 14:52:00,
2013-05-23 10:01:00,62.0,-99.9,-100.00,North,6,4.0,7.0,-999,0.00,,,-99.99,,2013-05-23 15:01:00,
2013-05-23 10:11:00,62.0,-99.9,-100.00,North,359,4.0,6.0,-999,0.00,,,-99.99,,2013-05-23 15:11:00,
2013-05-23 10:22:00,62.0,-99.9,-100.00,North,359,4.0,6.0,-999,0.00,,,-99.99,,2013-05-23 15:22:00,
2013-05-23 10:33:00,63.0,-99.9,-100.00,North,359,4.0,6.0,-999,0.00,,,-99.99,,2013-05-23 15:33:00,
2013-05-23 10:43:00,63.0,-99.9,-100.00,North,359,4.0,6.0,-999,0.00,,,-99.99,,2013-05-23 15:43:00,
2013-05-23 10:53:00,64.0,-99.9,-100.00,NNE,13,5.0,8.0,-999,0.00,,,-99.99,,2013-05-23 15:53:00,
2013-05-23 11:03:00,66.0,-99.9,-100.00,North,352,5.0,7.0,-999,0.00,,,-99.99,,2013-05-23 16:03:00,
2013-05-23 11:13:00,66.0,-99.9,-100.00,NNE,20,6.0,8.0,-999,0.00,,,-99.99,,2013-05-23 16:13:00,
2013-05-23 11:23:00,66.0,-99.9,-100.00,NNE,20,6.0,8.0,-999,0.00,,,-99.99,,2013-05-23 16:23:00,
2013-05-23 11:34:00,65.0,-99.9,-100.00,North,3,9.0,11.0,-999,0.00,,,-99.99,,2013-05-23 16:34:00,
2013-05-23 11:43:00,65.0,-99.9,-100.00,North,3,9.0,11.0,-999,0.00,,,-99.99,,2013-05-23 16:43:00,
2013-05-23 11:53:00,68.0,-99.9,-100.00,North,359,3.0,7.0,-999,0.00,,,-99.99,,2013-05-23 16:53:00,
2013-05-23 12:03:00,67.0,-99.9,-100.00,NNE,21,5.0,10.0,-999,0.00,,,-99.99,,2013-05-23 17:03:00,
2013-05-23 12:12:00,67.0,-99.9,-100.00,North,359,6.0,8.0,-999,0.00,,,-99.99,,2013-05-23 17:12:00,
2013-05-23 12:23:00,67.0,-99.9,-100.00,North,359,6.0,8.0,-999,0.00,,,-99.99,,2013-05-23 17:23:00,
2013-05-23 12:34:00,68.0,-99.9,-100.00,North,3,7.0,10.0,-999,0.00,,,-99.99,,2013-05-23 17:34:00,
2013-05-23 12:43:00,68.0,-99.9,-100.00,North,3,7.0,10.0,-999,0.00,,,-99.99,,2013-05-23 17:43:00,
2013-05-23 12:53:00,68.0,-99.9,-100.00,NE,48,7.0,8.0,-999,0.00,,,-99.99,,2013-05-23 17:53:00,
2013-05-23 13:02:00,68.0,-99.9,-100.00,North,0,7.0,9.0,-999,0.00,,,-99.99,,2013-05-23 18:02:00,
2013-05-23 13:12:00,68.0,-99.9,-100.00,NNE,18,7.0,10.0,-999,0.00,,,-99.99,,2013-05-23 18:12:00,
2013-05-23 13:22:00,68.0,-99.9,-100.00,NNE,18,7.0,10.0,-999,0.00,,,-99.99,,2013-05-23 18:22:00,
2013-05-23 13:33:00,67.0,-99.9,-100.00,North,3,6.0,8.0,-999,0.00,,,-99.99,,2013-05-23 18:33:00,
2013-05-23 13:42:00,67.0,-99.9,-100.00,North,3,6.0,8.0,-999,0.00,,,-99.99,,2013-05-23 18:42:00,
2013-05-23 13:52:00,67.0,-99.9,-100.00,North,10,4.0,5.0,-999,0.00,,,-99.99,,2013-05-23 18:52:00,
2013-05-23 14:02:00,66.0,-99.9,-100.00,NNE,15,0.0,2.0,-999,0.00,,,-99.99,,2013-05-23 19:02:00,
2013-05-23 14:11:00,66.0,-99.9,-100.00,NNE,15,0.0,2.0,-999,0.00,,,-99.99,,2013-05-23 19:11:00,
2013-05-23 14:22:00,64.0,-99.9,-100.00,WNW,288,0.0,2.0,-999,0.00,,,-99.99,,2013-05-23 19:22:00,
2013-05-23 14:32:00,64.0,-99.9,-100.00,North,0,0.0,0.0,-999,0.00,,,-99.99,,2013-05-23 19:32:00,
2013-05-23 14:42:00,64.0,-99.9,-100.00,North,0,0.0,0.0,-999,0.00,,,-99.99,,2013-05-23 19:42:00,
2013-05-23 14:52:00,64.0,-99.9,-100.00,North,0,0.0,0.0,-999,0.00,,,-99.99,,2013-05-23 19:52:00,
2013-05-23 15:02:00,64.0,-99.9,-100.00,North,0,0.0,0.0,-999,0.00,,,-99.99,,2013-05-23 20:02:00,
2013-05-23 15:12:00,63.0,-99.9,-100.00,SSE,165,3.0,4.0,-999,0.00,,,-99.99,,2013-05-23 20:12:00,
2013-05-23 15:22:00,63.0,-99.9,-100.00,SSE,165,3.0,4.0,-999,0.00,,,-99.99,,2013-05-23 20:22:00,
2013-05-23 15:32:00,63.0,-99.9,-100.00,NW,307,6.0,10.0,-999,0.00,,,-99.99,,2013-05-23 20:32:00,
2013-05-23 15:42:00,63.0,-99.9,-100.00,NW,307,6.0,10.0,-999,0.00,,,-99.99,,2013-05-23 20:42:00,
2013-05-23 15:52:00,62.0,-99.9,-100.00,WNW,302,5.0,9.0,-999,0.00,,,-99.99,,2013-05-23 20:52:00,
2013-05-23 16:01:00,63.0,-99.9,-100.00,North,0,0.0,0.0,-999,0.00,,,-99.99,,2013-05-23 21:01:00,
2013-05-23 16:11:00,63.0,-99.9,-100.00,North,0,0.0,0.0,-999,0.00,,,-99.99,,2013-05-23 21:11:00,
2013-05-23 16:33:00,62.0,-99.9,-100.00,NNW,328,7.0,11.0,-999,0.00,,,-99.99,,2013-05-23 21:33:00,
2013-05-23 16:43:00,62.0,-99.9,-100.00,NNW,328,7.0,11.0,-999,0.00,,,-99.99,,2013-05-23 21:43:00,
2013-05-23 16:53:00,63.0,-99.9,-100.00,NW,323,7.0,12.0,-999,0.00,,,-99.99,,2013-05-23 21:53:00,
2013-05-23 17:03:00,63.0,-99.9,-100.00,NW,305,2.0,4.0,-999,0.00,,,-99.99,,2013-05-23 22:03:00,
2013-05-23 17:12:00,63.0,-99.9,-100.00,SE,141,9.0,16.0,-999,0.00,,,-99.99,,2013-05-23 22:12:00,
2013-05-23 17:23:00,63.0,-99.9,-100.00,SE,141,9.0,16.0,-999,0.00,,,-99.99,,2013-05-23 22:23:00,
2013-05-23 17:33:00,64.0,-99.9,-100.00,WNW,285,13.0,29.0,-999,0.00,,,-99.99,,2013-05-23 22:33:00,
2013-05-23 17:43:00,64.0,-99.9,-100.00,WNW,285,13.0,29.0,-999,0.00,,,-99.99,,2013-05-23 22:43:00,
2013-05-23 17:52:00,64.0,-99.9,-100.00,NNW,328,5.0,8.0,-999,0.00,,,-99.99,,2013-05-23 22:52:00,
2013-05-23 18:02:00,62.0,-99.9,-100.00,NW,319,6.0,10.0,-999,0.00,,,-99.99,,2013-05-23 23:02:00,
2013-05-23 18:12:00,62.0,-99.9,-100.00,WNW,302,7.0,10.0,-999,0.00,,,-99.99,,2013-05-23 23:12:00,
2013-05-23 18:22:00,62.0,-99.9,-100.00,WNW,302,7.0,10.0,-999,0.00,,,-99.99,,2013-05-23 23:22:00,
2013-05-23 18:32:00,62.0,-99.9,-100.00,ENE,58,7.0,11.0,-999,0.00,,,-99.99,,2013-05-23 23:32:00,
2013-05-23 18:42:00,62.0,-99.9,-100.00,ENE,58,7.0,11.0,-999,0.00,,,-99.99,,2013-05-23 23:42:00,
2013-05-23 18:52:00,64.0,-99.9,-100.00,NNE,21,11.0,17.0,-999,0.00,,,-99.99,,2013-05-23 23:52:00,
2013-05-23 19:01:00,64.0,-99.9,-100.00,North,0,6.0,10.0,-999,0.00,,,-99.99,,2013-05-24 00:01:00,
2013-05-23 19:32:00,63.0,-99.9,-100.00,NNW,338,2.0,5.0,-999,0.00,,,-99.99,,2013-05-24 00:32:00,
2013-05-23 19:42:00,63.0,-99.9,-100.00,NNW,338,2.0,5.0,-999,0.00,,,-99.99,,2013-05-24 00:42:00,
2013-05-23 19:52:00,64.0,-99.9,-100.00,NNW,346,2.0,5.0,-999,0.00,,,-99.99,,2013-05-24 00:52:00,
2013-05-23 20:01:00,63.0,-99.9,-100.00,NW,305,4.0,6.0,-999,0.00,,,-99.99,,2013-05-24 01:01:00,
2013-05-23 20:12:00,63.0,-99.9,-100.00,NW,305,4.0,6.0,-999,0.00,,,-99.99,,2013-05-24 01:12:00,
2013-05-23 20:22:00,63.0,-99.9,-100.00,West,277,2.0,5.0,-999,0.00,,,-99.99,,2013-05-24 01:22:00,
2013-05-23 20:32:00,63.0,-99.9,-100.00,WNW,293,3.0,6.0,-999,0.00,,,-99.99,,2013-05-24 01:32:00,
2013-05-23 20:42:00,63.0,-99.9,-100.00,WNW,293,3.0,6.0,-999,0.00,,,-99.99,,2013-05-24 01:42:00,
2013-05-23 20:52:00,63.0,-99.9,-100.00,NW,323,2.0,7.0,-999,0.00,,,-99.99,,2013-05-24 01:52:00,
2013-05-23 21:02:00,62.0,-99.9,-100.00,North,0,0.0,0.0,-999,0.00,,,-99.99,,2013-05-24 02:02:00,
2013-05-23 21:12:00,62.0,-99.9,-100.00,North,0,0.0,0.0,-999,0.00,,,-99.99,,2013-05-24 02:12:00,
2013-05-23 21:22:00,62.0,-99.9,-100.00,North,0,0.0,0.0,-999,0.00,,,-99.99,,2013-05-24 02:22:00,
2013-05-23 21:32:00,62.0,-99.9,-100.00,NNE,27,3.0,4.0,-999,0.00,,,-99.99,,2013-05-24 02:32:00,
2013-05-23 21:42:00,62.0,-99.9,-100.00,NNE,27,3.0,4.0,-999,0.00,,,-99.99,,2013-05-24 02:42:00,
2013-05-23 21:52:00,63.0,-99.9,-100.00,NNW,345,0.0,3.0,-999,0.00,,,-99.99,,2013-05-24 02:52:00,
2013-05-23 22:02:00,62.0,-99.9,-100.00,North,1,2.0,5.0,-999,0.00,,,-99.99,,2013-05-24 03:02:00,
2013-05-23 22:11:00,62.0,-99.9,-100.00,North,0,0.0,0.0,-999,0.00,,,-99.99,,2013-05-24 03:11:00,
2013-05-23 22:22:00,62.0,-99.9,-100.00,North,0,0.0,0.0,-999,0.00,,,-99.99,,2013-05-24 03:22:00,
2013-05-23 22:33:00,62.0,-99.9,-100.00,North,0,0.0,0.0,-999,0.00,,,-99.99,,2013-05-24 03:33:00,
2013-05-23 22:43:00,62.0,-99.9,-100.00,North,0,0.0,0.0,-999,0.00,,,-99.99,,2013-05-24 03:43:00,
2013-05-23 22:53:00,61.0,-99.9,-100.00,North,0,0.0,0.0,-999,0.00,,,-99.99,,2013-05-24 03:53:00,
2013-05-23 23:03:00,60.0,-99.9,-100.00,North,0,0.0,0.0,-999,0.00,,,-99.99,,2013-05-24 04:03:00,
2013-05-23 23:13:00,59.0,-99.9,-100.00,North,0,0.0,0.0,-999,0.00,,,-99.99,,2013-05-24 04:13:00,
2013-05-23 23:23:00,59.0,-99.9,-100.00,North,0,0.0,0.0,-999,0.00,,,-99.99,,2013-05-24 04:23:00,
2013-05-23 23:33:00,59.0,-99.9,-100.00,North,0,0.0,0.0,-999,0.00,,,-99.99,,2013-05-24 04:33:00,
2013-05-23 23:42:00,59.0,-99.9,-100.00,North,0,0.0,0.0,-999,0.00,,,-99.99,,2013-05-24 04:42:00,
2013-05-23 23:53:00,59.0,-99.9,-100.00,North,0,0.0,0.0,-999,0.00,,,-99.99,,2013-05-24 04:53:00,